createdAt,value
2018-02-21T00:00:04.655Z,1.32
2018-02-21T00:01:04.644Z,1.36
2018-02-21T00:02:04.615Z,1.37
2018-02-21T00:03:04.592Z,1.50
2018-02-21T00:04:04.576Z,1.39
2018-02-21T00:05:04.554Z,1.32
2018-02-21T00:06:04.528Z,1.29
2018-02-21T00:07:04.512Z,1.29
2018-02-21T00:08:04.484Z,1.26
2018-02-21T00:09:04.464Z,1.25
2018-02-21T00:10:04.447Z,1.28
2018-02-21T00:11:04.427Z,1.24
2018-02-21T00:12:04.408Z,1.24
2018-02-21T00:13:04.376Z,1.33
2018-02-21T00:14:04.356Z,1.33
2018-02-21T00:15:04.334Z,1.29
2018-02-21T00:16:04.318Z,1.26
2018-02-21T00:17:04.295Z,1.18
2018-02-21T00:18:04.273Z,1.21
2018-02-21T00:19:04.256Z,1.16
2018-02-21T00:20:04.236Z,1.14
2018-02-21T00:21:04.204Z,1.14
2018-02-21T00:22:04.186Z,1.16
2018-02-21T00:23:04.166Z,1.15
2018-02-21T00:24:04.143Z,1.15
2018-02-21T00:25:04.122Z,1.10
2018-02-21T00:26:04.099Z,1.10
2018-02-21T00:27:04.080Z,1.04
2018-02-21T00:28:04.051Z,1.08
2018-02-21T00:29:04.033Z,1.06
2018-02-21T00:30:04.014Z,1.06
2018-02-21T00:31:03.991Z,1.03
2018-02-21T00:32:03.968Z,1.00
2018-02-21T00:33:03.950Z,1.18
2018-02-21T00:34:03.931Z,1.12
2018-02-21T00:35:03.908Z,1.14
2018-02-21T00:36:03.886Z,1.21
2018-02-21T00:37:03.866Z,1.10
2018-02-21T00:38:03.849Z,1.22
2018-02-21T00:39:03.829Z,1.19
2018-02-21T00:40:03.925Z,1.18
2018-02-21T00:41:03.786Z,1.21
2018-02-21T00:42:03.757Z,1.12
2018-02-21T00:43:03.748Z,1.08
2018-02-21T00:44:03.713Z,1.04
2018-02-21T00:45:03.693Z,0.97
2018-02-21T00:46:03.673Z,0.92
2018-02-21T00:47:03.662Z,0.92
2018-02-21T00:48:03.630Z,0.94
2018-02-21T00:49:03.612Z,0.92
2018-02-21T00:50:03.596Z,0.97
2018-02-21T00:51:03.563Z,0.88
2018-02-21T00:52:03.540Z,0.80
2018-02-21T00:53:03.522Z,0.86
2018-02-21T00:54:03.503Z,0.90
2018-02-21T00:55:03.477Z,0.90
2018-02-21T00:56:03.461Z,0.89
2018-02-21T00:57:03.432Z,0.86
2018-02-21T00:58:03.409Z,0.78
2018-02-21T00:59:03.391Z,0.86
2018-02-21T01:00:03.371Z,0.85
2018-02-21T01:01:03.345Z,0.90
2018-02-21T01:02:03.330Z,0.85
2018-02-21T01:03:03.307Z,0.75
2018-02-21T01:04:03.282Z,0.79
2018-02-21T01:05:03.265Z,0.71
2018-02-21T01:06:03.239Z,0.76
2018-02-21T01:07:03.224Z,0.75
2018-02-21T01:08:03.195Z,0.82
2018-02-21T01:09:03.183Z,0.80
2018-02-21T01:10:03.156Z,0.79
2018-02-21T01:11:03.134Z,0.78
2018-02-21T01:12:03.115Z,0.76
2018-02-21T01:13:03.086Z,0.76
2018-02-21T01:14:03.067Z,0.79
2018-02-21T01:15:03.053Z,0.75
2018-02-21T01:16:03.025Z,0.79
2018-02-21T01:17:03.005Z,0.68
2018-02-21T01:18:02.977Z,0.76
2018-02-21T01:19:02.965Z,0.79
2018-02-21T01:20:02.929Z,0.72
2018-02-21T01:21:02.919Z,0.71
2018-02-21T01:22:02.890Z,0.70
2018-02-21T01:23:02.874Z,0.78
2018-02-21T01:24:02.851Z,0.64
2018-02-21T01:25:02.824Z,0.65
2018-02-21T01:26:02.802Z,0.67
2018-02-21T01:27:02.785Z,0.65
2018-02-21T01:28:02.761Z,0.68
2018-02-21T01:29:02.741Z,0.64
2018-02-21T01:30:02.719Z,0.71
2018-02-21T01:31:02.703Z,0.71
2018-02-21T01:32:02.676Z,0.62
2018-02-21T01:33:02.665Z,0.64
2018-02-21T01:34:02.630Z,0.65
2018-02-21T01:35:02.608Z,0.64
2018-02-21T01:36:02.581Z,0.58
2018-02-21T01:37:02.569Z,0.52
2018-02-21T01:38:02.543Z,0.58
2018-02-21T01:39:02.524Z,0.64
2018-02-21T01:40:02.501Z,0.58
2018-02-21T01:41:02.476Z,0.62
2018-02-21T01:42:02.456Z,0.60
2018-02-21T01:43:02.435Z,0.60
2018-02-21T01:44:02.418Z,0.62
2018-02-21T01:45:02.390Z,0.62
2018-02-21T01:46:02.377Z,0.61
2018-02-21T01:47:02.355Z,0.61
2018-02-21T01:48:02.338Z,0.62
2018-02-21T01:49:02.303Z,0.64
2018-02-21T01:50:02.284Z,0.68
2018-02-21T01:51:02.266Z,0.58
2018-02-21T01:52:02.238Z,0.71
2018-02-21T01:53:02.218Z,0.75
2018-02-21T01:54:02.195Z,0.72
2018-02-21T01:55:02.173Z,0.68
2018-02-21T01:56:02.151Z,0.72
2018-02-21T01:57:02.132Z,0.75
2018-02-21T01:58:02.110Z,0.71
2018-02-21T01:59:02.087Z,0.71
2018-02-21T02:00:02.065Z,0.72
2018-02-21T02:01:02.041Z,0.67
2018-02-21T02:02:02.021Z,0.70
2018-02-21T02:03:02.004Z,0.72
2018-02-21T02:04:01.975Z,0.78
2018-02-21T02:05:01.953Z,0.68
2018-02-21T02:06:01.941Z,0.70
2018-02-21T02:07:01.911Z,0.70
2018-02-21T02:08:01.890Z,0.72
2018-02-21T02:09:01.873Z,0.68
2018-02-21T02:10:01.851Z,0.65
2018-02-21T02:11:01.823Z,0.70
2018-02-21T02:12:01.801Z,0.70
2018-02-21T02:13:01.782Z,0.68
2018-02-21T02:14:01.760Z,0.65
2018-02-21T02:15:01.745Z,0.70
2018-02-21T02:16:01.723Z,0.70
2018-02-21T02:17:01.693Z,0.62
2018-02-21T02:18:01.671Z,0.72
2018-02-21T02:19:01.647Z,0.57
2018-02-21T02:20:01.632Z,0.57
2018-02-21T02:21:01.614Z,0.58
2018-02-21T02:22:01.588Z,0.57
2018-02-21T02:23:01.562Z,0.64
2018-02-21T02:24:01.541Z,0.62
2018-02-21T02:25:01.530Z,0.75
2018-02-21T02:26:01.505Z,0.57
2018-02-21T02:27:01.476Z,0.61
2018-02-21T02:28:01.453Z,0.64
2018-02-21T02:29:01.442Z,0.60
2018-02-21T02:30:01.428Z,0.70
2018-02-21T02:31:01.409Z,0.67
2018-02-21T02:32:01.369Z,0.60
2018-02-21T02:33:01.356Z,0.64
2018-02-21T02:34:01.325Z,0.67
2018-02-21T02:35:01.310Z,0.62
2018-02-21T02:36:01.280Z,0.61
2018-02-21T02:37:01.267Z,0.67
2018-02-21T02:38:01.271Z,0.61
2018-02-21T02:39:01.219Z,0.62
2018-02-21T02:40:01.198Z,0.70
2018-02-21T02:41:01.176Z,0.60
2018-02-21T02:42:01.151Z,0.67
2018-02-21T02:43:01.136Z,0.62
2018-02-21T02:44:01.102Z,0.62
2018-02-21T02:45:01.090Z,0.61
2018-02-21T02:46:01.061Z,0.62
2018-02-21T02:47:01.042Z,0.62
2018-02-21T02:48:01.024Z,0.42
2018-02-21T02:49:01.000Z,0.51
2018-02-21T02:50:00.988Z,0.48
2018-02-21T02:51:00.953Z,0.42
2018-02-21T02:52:00.936Z,0.34
2018-02-21T02:53:00.908Z,0.42
2018-02-21T02:54:00.894Z,0.36
2018-02-21T02:55:00.866Z,0.28
2018-02-21T02:56:00.844Z,0.27
2018-02-21T02:57:00.827Z,0.20
2018-02-21T02:58:00.799Z,0.18
2018-02-21T02:59:00.786Z,0.10
2018-02-21T03:00:00.763Z,0.10
2018-02-21T03:01:00.737Z,0.13
2018-02-21T03:02:00.718Z,0.06
2018-02-21T03:03:00.689Z,-0.01
2018-02-21T03:04:00.667Z,-0.01
2018-02-21T03:05:00.648Z,-0.08
2018-02-21T03:06:00.625Z,-0.12
2018-02-21T03:07:00.608Z,-0.24
2018-02-21T03:08:00.588Z,-0.15
2018-02-21T03:09:00.558Z,-0.29
2018-02-21T03:10:00.535Z,-0.30
2018-02-21T03:11:00.512Z,-0.30
2018-02-21T03:12:00.493Z,-0.29
2018-02-21T03:13:00.477Z,-0.27
2018-02-21T03:14:00.455Z,-0.37
2018-02-21T03:15:00.431Z,-0.31
2018-02-21T03:16:00.402Z,-0.42
2018-02-21T03:17:00.380Z,-0.42
2018-02-21T03:18:00.357Z,-0.39
2018-02-21T03:19:00.341Z,-0.41
2018-02-21T03:20:00.315Z,-0.39
2018-02-21T03:21:00.300Z,-0.41
2018-02-21T03:22:00.271Z,-0.41
2018-02-21T03:23:00.252Z,-0.50
2018-02-21T03:24:00.234Z,-0.47
2018-02-21T03:25:00.214Z,-0.55
2018-02-21T03:26:00.185Z,-0.59
2018-02-21T03:27:00.173Z,-0.60
2018-02-21T03:28:00.144Z,-0.65
2018-02-21T03:29:00.126Z,-0.63
2018-02-21T03:30:00.097Z,-0.50
2018-02-21T03:31:00.074Z,-0.51
2018-02-21T03:32:00.052Z,-0.63
2018-02-21T03:33:00.032Z,-0.55
2018-02-21T03:34:00.013Z,-0.50
2018-02-21T03:34:59.984Z,-0.59
2018-02-21T03:35:59.967Z,-0.60
2018-02-21T03:36:59.948Z,-0.63
2018-02-21T03:37:59.917Z,-0.60
2018-02-21T03:38:59.904Z,-0.62
2018-02-21T03:39:59.878Z,-0.63
2018-02-21T03:40:59.855Z,-0.57
2018-02-21T03:41:59.831Z,-0.65
2018-02-21T03:42:59.808Z,-0.70
2018-02-21T03:43:59.786Z,-0.69
2018-02-21T03:44:59.763Z,-0.75
2018-02-21T03:45:59.741Z,-0.69
2018-02-21T03:46:59.722Z,-0.69
2018-02-21T03:47:59.696Z,-0.70
2018-02-21T03:48:59.712Z,-0.68
2018-02-21T03:49:59.655Z,-0.73
2018-02-21T03:50:59.630Z,-0.77
2018-02-21T03:51:59.608Z,-0.83
2018-02-21T03:52:59.589Z,-0.73
2018-02-21T03:53:59.573Z,-0.78
2018-02-21T03:54:59.544Z,-0.80
2018-02-21T03:55:59.528Z,-0.81
2018-02-21T03:56:59.499Z,-0.80
2018-02-21T03:57:59.477Z,-0.84
2018-02-21T03:58:59.461Z,-0.83
2018-02-21T03:59:59.433Z,-0.72
2018-02-21T04:00:59.415Z,-0.75
2018-02-21T04:01:59.395Z,-0.81
2018-02-21T04:02:59.366Z,-0.84
2018-02-21T04:03:59.344Z,-0.78
2018-02-21T04:04:59.321Z,-0.83
2018-02-21T04:05:59.302Z,-0.89
2018-02-21T04:06:59.277Z,-0.84
2018-02-21T04:07:59.261Z,-0.81
2018-02-21T04:08:59.234Z,-0.80
2018-02-21T04:09:59.211Z,-0.84
2018-02-21T04:10:59.192Z,-0.86
2018-02-21T04:11:59.166Z,-0.91
2018-02-21T04:12:59.143Z,-0.89
2018-02-21T04:13:59.124Z,-0.87
2018-02-21T04:14:59.109Z,-0.92
2018-02-21T04:15:59.079Z,-1.03
2018-02-21T04:16:59.060Z,-1.02
2018-02-21T04:17:59.037Z,-0.99
2018-02-21T04:18:59.018Z,-1.02
2018-02-21T04:19:58.996Z,-1.07
2018-02-21T04:20:58.966Z,-1.05
2018-02-21T04:21:58.951Z,-1.03
2018-02-21T04:22:58.922Z,-1.15
2018-02-21T04:23:58.906Z,-1.10
2018-02-21T04:24:58.883Z,-1.10
2018-02-21T04:25:58.855Z,-1.17
2018-02-21T04:26:58.834Z,-1.12
2018-02-21T04:27:58.812Z,-1.17
2018-02-21T04:28:58.793Z,-1.13
2018-02-21T04:29:58.767Z,-1.10
2018-02-21T04:30:58.744Z,-1.13
2018-02-21T04:31:58.730Z,-1.18
2018-02-21T04:32:58.725Z,-1.20
2018-02-21T04:33:58.678Z,-1.15
2018-02-21T04:34:58.655Z,-1.10
2018-02-21T04:35:58.632Z,-1.21
2018-02-21T04:36:58.610Z,-1.18
2018-02-21T04:37:58.594Z,-1.27
2018-02-21T04:38:58.572Z,-1.39
2018-02-21T04:39:58.546Z,-1.27
2018-02-21T04:40:58.521Z,-1.18
2018-02-21T04:41:58.508Z,-1.23
2018-02-21T04:42:58.482Z,-1.07
2018-02-21T04:43:58.466Z,-1.12
2018-02-21T04:44:58.437Z,-1.15
2018-02-21T04:45:58.450Z,-1.10
2018-02-21T04:46:58.389Z,-1.06
2018-02-21T04:47:58.370Z,-1.12
2018-02-21T04:48:58.344Z,-1.17
2018-02-21T04:49:58.322Z,-1.21
2018-02-21T04:50:58.303Z,-1.23
2018-02-21T04:51:58.277Z,-1.24
2018-02-21T04:52:58.264Z,-1.20
2018-02-21T04:53:58.231Z,-1.25
2018-02-21T04:54:58.213Z,-1.17
2018-02-21T04:55:58.193Z,-1.24
2018-02-21T04:56:58.168Z,-1.20
2018-02-21T04:57:58.146Z,-1.21
2018-02-21T04:58:58.125Z,-1.20
2018-02-21T04:59:58.100Z,-1.18
2018-02-21T05:00:58.081Z,-1.20
2018-02-21T05:01:58.053Z,-1.30
2018-02-21T05:02:58.034Z,-1.30
2018-02-21T05:03:58.015Z,-1.43
2018-02-21T05:04:57.987Z,-1.43
2018-02-21T05:05:57.968Z,-1.45
2018-02-21T05:06:57.945Z,-1.41
2018-02-21T05:07:57.929Z,-1.48
2018-02-21T05:08:57.901Z,-1.49
2018-02-21T05:09:57.884Z,-1.42
2018-02-21T05:10:57.862Z,-1.38
2018-02-21T05:11:57.840Z,-1.45
2018-02-21T05:12:57.817Z,-1.41
2018-02-21T05:13:57.789Z,-1.38
2018-02-21T05:14:57.763Z,-1.41
2018-02-21T05:15:57.744Z,-1.48
2018-02-21T05:16:57.721Z,-1.53
2018-02-21T05:17:57.708Z,-1.57
2018-02-21T05:18:57.696Z,-1.56
2018-02-21T05:19:57.658Z,-1.64
2018-02-21T05:20:57.648Z,-1.66
2018-02-21T05:21:57.613Z,-1.70
2018-02-21T05:22:57.594Z,-1.81
2018-02-21T05:23:57.568Z,-1.96
2018-02-21T05:24:57.546Z,-1.92
2018-02-21T05:25:57.520Z,-1.99
2018-02-21T05:26:57.504Z,-1.96
2018-02-21T05:27:57.488Z,-1.98
2018-02-21T05:28:57.456Z,-1.88
2018-02-21T05:29:57.432Z,-1.90
2018-02-21T05:30:57.416Z,-1.96
2018-02-21T05:31:57.397Z,-1.95
2018-02-21T05:32:57.364Z,-1.90
2018-02-21T05:33:57.348Z,-1.95
2018-02-21T05:34:57.334Z,-1.99
2018-02-21T05:35:57.294Z,-1.92
2018-02-21T05:36:57.272Z,-1.93
2018-02-21T05:37:57.256Z,-1.88
2018-02-21T05:38:57.237Z,-1.98
2018-02-21T05:39:57.211Z,-2.03
2018-02-21T05:40:57.182Z,-2.11
2018-02-21T05:41:57.160Z,-2.13
2018-02-21T05:42:57.138Z,-2.16
2018-02-21T05:43:57.116Z,-2.16
2018-02-21T05:44:57.096Z,-2.23
2018-02-21T05:45:57.084Z,-2.23
2018-02-21T05:46:57.067Z,-2.20
2018-02-21T05:47:57.031Z,-2.17
2018-02-21T05:48:57.008Z,-2.13
2018-02-21T05:49:57.037Z,-2.23
2018-02-21T05:50:56.961Z,-2.17
2018-02-21T05:51:56.958Z,-2.26
2018-02-21T05:52:56.932Z,-2.17
2018-02-21T05:53:56.896Z,-2.13
2018-02-21T05:54:56.875Z,-2.13
2018-02-21T05:55:56.846Z,-2.16
2018-02-21T05:56:56.831Z,-2.16
2018-02-21T05:57:56.808Z,-2.24
2018-02-21T05:58:56.837Z,-2.16
2018-02-21T05:59:56.821Z,-2.18
2018-02-21T06:00:56.779Z,-2.20
2018-02-21T06:01:56.737Z,-2.20
2018-02-21T06:02:57.371Z,-2.32
2018-02-21T06:03:56.674Z,-2.20
2018-02-21T06:04:56.645Z,-2.17
2018-02-21T06:05:56.638Z,-2.17
2018-02-21T06:06:56.606Z,-2.28
2018-02-21T06:07:56.587Z,-2.35
2018-02-21T06:08:56.558Z,-2.32
2018-02-21T06:09:56.532Z,-2.29
2018-02-21T06:10:56.512Z,-2.21
2018-02-21T06:11:56.491Z,-2.39
2018-02-21T06:12:56.471Z,-2.42
2018-02-21T06:13:56.439Z,-2.47
2018-02-21T06:14:56.425Z,-2.42
2018-02-21T06:15:56.393Z,-2.33
2018-02-21T06:16:56.378Z,-2.35
2018-02-21T06:17:56.352Z,-2.43
2018-02-21T06:18:56.331Z,-2.47
2018-02-21T06:19:56.310Z,-2.57
2018-02-21T06:20:56.284Z,-2.57
2018-02-21T06:21:56.261Z,-2.54
2018-02-21T06:22:56.237Z,-2.53
2018-02-21T06:23:56.211Z,-2.54
2018-02-21T06:24:56.208Z,-2.54
2018-02-21T06:25:56.176Z,-2.56
2018-02-21T06:26:56.156Z,-2.57
2018-02-21T06:27:56.125Z,-2.50
2018-02-21T06:28:56.105Z,-2.54
2018-02-21T06:29:56.079Z,-2.60
2018-02-21T06:30:56.060Z,-2.57
2018-02-21T06:31:56.045Z,-2.60
2018-02-21T06:32:56.015Z,-2.61
2018-02-21T06:33:55.987Z,-2.56
2018-02-21T06:34:55.970Z,-2.57
2018-02-21T06:35:55.948Z,-2.69
2018-02-21T06:36:55.927Z,-2.71
2018-02-21T06:37:55.900Z,-2.71
2018-02-21T06:38:55.875Z,-2.72
2018-02-21T06:39:55.852Z,-2.72
2018-02-21T06:40:55.835Z,-2.60
2018-02-21T06:41:55.807Z,-2.56
2018-02-21T06:42:55.791Z,-2.60
2018-02-21T06:43:55.764Z,-2.63
2018-02-21T06:44:55.736Z,-2.56
2018-02-21T06:45:55.714Z,-2.57
2018-02-21T06:46:55.691Z,-2.54
2018-02-21T06:47:55.678Z,-2.53
2018-02-21T06:48:55.653Z,-2.51
2018-02-21T06:49:55.632Z,-2.56
2018-02-21T06:50:55.603Z,-2.54
2018-02-21T06:51:55.584Z,-2.60
2018-02-21T06:52:55.584Z,-2.60
2018-02-21T06:53:55.534Z,-2.54
2018-02-21T06:54:55.523Z,-2.56
2018-02-21T06:55:55.488Z,-2.53
2018-02-21T06:56:55.469Z,-2.58
2018-02-21T06:57:55.445Z,-2.53
2018-02-21T06:58:55.421Z,-2.53
2018-02-21T06:59:55.402Z,-2.54
2018-02-21T07:00:55.383Z,-2.53
2018-02-21T07:01:55.357Z,-2.51
2018-02-21T07:02:55.335Z,-2.50
2018-02-21T07:03:55.306Z,-2.51
2018-02-21T07:04:55.290Z,-2.58
2018-02-21T07:05:55.268Z,-2.53
2018-02-21T07:06:55.245Z,-2.57
2018-02-21T07:07:55.235Z,-2.47
2018-02-21T07:08:55.197Z,-2.53
2018-02-21T07:09:55.179Z,-2.56
2018-02-21T07:10:55.156Z,-2.45
2018-02-21T07:11:55.127Z,-2.50
2018-02-21T07:12:55.108Z,-2.43
2018-02-21T07:13:55.086Z,-2.51
2018-02-21T07:14:55.063Z,-2.50
2018-02-21T07:15:55.036Z,-2.48
2018-02-21T07:16:55.019Z,-2.53
2018-02-21T07:17:54.990Z,-2.51
2018-02-21T07:18:54.974Z,-2.35
2018-02-21T07:19:54.945Z,-2.43
2018-02-21T07:20:54.923Z,-2.42
2018-02-21T07:21:54.910Z,-2.29
2018-02-21T07:22:54.875Z,-2.35
2018-02-21T07:23:54.866Z,-2.21
2018-02-21T07:24:54.831Z,-2.21
2018-02-21T07:25:54.812Z,-2.23
2018-02-21T07:26:54.793Z,-2.32
2018-02-21T07:27:54.764Z,-2.14
2018-02-21T07:28:54.745Z,-2.21
2018-02-21T07:29:54.767Z,-2.11
2018-02-21T07:30:54.717Z,-2.08
2018-02-21T07:31:54.674Z,-2.00
2018-02-21T07:32:54.668Z,-1.96
2018-02-21T07:33:54.642Z,-1.87
2018-02-21T07:34:54.606Z,-1.98
2018-02-21T07:35:54.583Z,-1.78
2018-02-21T07:36:54.564Z,-1.75
2018-02-21T07:37:54.546Z,-1.80
2018-02-21T07:38:54.522Z,-1.80
2018-02-21T07:39:54.494Z,-1.66
2018-02-21T07:40:54.479Z,-1.74
2018-02-21T07:41:54.456Z,-1.53
2018-02-21T07:42:54.434Z,-1.41
2018-02-21T07:43:54.414Z,-1.30
2018-02-21T07:44:54.387Z,-1.21
2018-02-21T07:45:54.367Z,-1.09
2018-02-21T07:46:54.341Z,-1.13
2018-02-21T07:47:54.323Z,-1.20
2018-02-21T07:48:54.300Z,-1.09
2018-02-21T07:49:54.271Z,-1.00
2018-02-21T07:50:54.255Z,-0.92
2018-02-21T07:51:54.227Z,-0.97
2018-02-21T07:52:54.210Z,-0.86
2018-02-21T07:53:54.180Z,-0.83
2018-02-21T07:54:54.168Z,-0.91
2018-02-21T07:55:54.145Z,-0.78
2018-02-21T07:56:54.114Z,-0.77
2018-02-21T07:57:54.101Z,-0.78
2018-02-21T07:58:54.077Z,-0.68
2018-02-21T07:59:54.043Z,-0.63
2018-02-21T08:00:54.071Z,-0.72
2018-02-21T08:01:54.010Z,-0.70
2018-02-21T08:02:53.987Z,-0.60
2018-02-21T08:03:53.961Z,-0.68
2018-02-21T08:04:53.936Z,-0.66
2018-02-21T08:05:53.920Z,-0.54
2018-02-21T08:06:53.904Z,-0.52
2018-02-21T08:07:53.868Z,-0.50
2018-02-21T08:08:53.846Z,-0.50
2018-02-21T08:09:53.827Z,-0.47
2018-02-21T08:10:53.808Z,-0.44
2018-02-21T08:11:53.779Z,-0.44
2018-02-21T08:12:53.764Z,-0.37
2018-02-21T08:13:53.737Z,-0.42
2018-02-21T08:14:53.712Z,-0.37
2018-02-21T08:15:53.690Z,-0.33
2018-02-21T08:16:53.673Z,-0.31
2018-02-21T08:17:53.652Z,-0.31
2018-02-21T08:18:53.629Z,-0.19
2018-02-21T08:19:53.599Z,-0.16
2018-02-21T08:20:53.580Z,-0.16
2018-02-21T08:21:53.563Z,-0.18
2018-02-21T08:22:53.542Z,-0.15
2018-02-21T08:23:53.517Z,-0.19
2018-02-21T08:24:53.494Z,-0.12
2018-02-21T08:25:53.475Z,-0.04
2018-02-21T08:26:53.446Z,-0.08
2018-02-21T08:27:53.426Z,0.02
2018-02-21T08:28:53.401Z,0.05
2018-02-21T08:29:53.388Z,0.06
2018-02-21T08:30:53.365Z,0.03
2018-02-21T08:31:53.333Z,-0.04
2018-02-21T08:32:53.318Z,0.16
2018-02-21T08:33:53.292Z,0.13
2018-02-21T08:34:53.275Z,0.12
2018-02-21T08:35:53.244Z,0.07
2018-02-21T08:36:53.230Z,0.28
2018-02-21T08:37:53.209Z,0.24
2018-02-21T08:38:53.184Z,0.23
2018-02-21T08:39:53.165Z,0.24
2018-02-21T08:40:53.143Z,0.33
2018-02-21T08:41:53.121Z,0.30
2018-02-21T08:42:53.096Z,0.33
2018-02-21T08:43:53.079Z,0.39
2018-02-21T08:44:53.051Z,0.34
2018-02-21T08:45:53.036Z,0.45
2018-02-21T08:46:53.009Z,0.45
2018-02-21T08:47:52.980Z,0.49
2018-02-21T08:48:52.967Z,0.42
2018-02-21T08:49:52.941Z,0.49
2018-02-21T08:50:52.926Z,0.58
2018-02-21T08:51:52.900Z,0.61
2018-02-21T08:52:52.881Z,0.64
2018-02-21T08:53:52.849Z,0.75
2018-02-21T08:54:52.852Z,0.70
2018-02-21T08:55:52.812Z,0.75
2018-02-21T08:56:52.795Z,0.70
2018-02-21T08:57:52.768Z,0.70
2018-02-21T08:58:52.747Z,0.67
2018-02-21T08:59:52.724Z,0.72
2018-02-21T09:00:52.702Z,0.80
2018-02-21T09:01:52.686Z,0.86
2018-02-21T09:02:52.654Z,0.72
2018-02-21T09:03:52.639Z,0.71
2018-02-21T09:04:52.623Z,0.80
2018-02-21T09:05:52.597Z,0.83
2018-02-21T09:06:52.575Z,0.76
2018-02-21T09:07:52.567Z,0.88
2018-02-21T09:08:52.527Z,0.80
2018-02-21T09:09:52.501Z,0.94
2018-02-21T09:10:52.487Z,0.79
2018-02-21T09:11:52.463Z,0.82
2018-02-21T09:12:52.450Z,0.94
2018-02-21T09:13:52.419Z,0.96
2018-02-21T09:14:52.394Z,0.98
2018-02-21T09:15:52.377Z,1.01
2018-02-21T09:16:52.348Z,1.04
2018-02-21T09:17:52.332Z,1.18
2018-02-21T09:18:52.317Z,1.15
2018-02-21T09:19:52.285Z,1.18
2018-02-21T09:20:52.268Z,1.22
2018-02-21T09:21:52.262Z,1.07
2018-02-21T09:22:52.219Z,1.24
2018-02-21T09:23:52.197Z,1.28
2018-02-21T09:24:52.181Z,1.19
2018-02-21T09:25:52.155Z,1.22
2018-02-21T09:26:52.139Z,1.24
2018-02-21T09:27:52.119Z,1.26
2018-02-21T09:28:52.095Z,1.34
2018-02-21T09:29:52.072Z,1.40
2018-02-21T09:30:52.050Z,1.28
2018-02-21T09:31:52.025Z,1.26
2018-02-21T09:32:52.022Z,1.33
2018-02-21T09:33:51.989Z,1.34
2018-02-21T09:34:51.961Z,1.34
2018-02-21T09:35:51.945Z,1.36
2018-02-21T09:36:51.921Z,1.36
2018-02-21T09:37:51.907Z,1.40
2018-02-21T09:38:51.886Z,1.50
2018-02-21T09:39:51.862Z,1.57
2018-02-21T09:40:51.839Z,1.58
2018-02-21T09:41:51.819Z,1.69
2018-02-21T09:42:51.797Z,1.54
2018-02-21T09:43:51.778Z,1.61
2018-02-21T09:44:51.759Z,1.58
2018-02-21T09:45:51.739Z,1.72
2018-02-21T09:46:51.717Z,1.75
2018-02-21T09:47:51.688Z,1.76
2018-02-21T09:48:51.673Z,1.85
2018-02-21T09:49:51.640Z,1.94
2018-02-21T09:50:51.634Z,1.82
2018-02-21T09:51:51.610Z,1.83
2018-02-21T09:52:51.588Z,1.87
2018-02-21T09:53:51.562Z,1.90
2018-02-21T09:54:51.552Z,1.87
2018-02-21T09:55:51.514Z,1.91
2018-02-21T09:56:51.550Z,1.79
2018-02-21T09:57:51.476Z,1.87
2018-02-21T09:58:51.450Z,1.82
2018-02-21T09:59:51.434Z,1.87
2018-02-21T10:00:51.414Z,1.93
2018-02-21T10:01:51.386Z,1.99
2018-02-21T10:02:51.366Z,1.91
2018-02-21T10:03:51.357Z,1.89
2018-02-21T10:04:51.325Z,1.89
2018-02-21T10:05:51.303Z,2.10
2018-02-21T10:06:51.304Z,2.15
2018-02-21T10:07:51.261Z,2.19
2018-02-21T10:08:51.235Z,2.27
2018-02-21T10:09:51.223Z,2.20
2018-02-21T10:10:51.207Z,2.22
2018-02-21T10:11:51.178Z,2.27
2018-02-21T10:12:51.155Z,2.26
2018-02-21T10:13:51.146Z,2.34
2018-02-21T10:14:51.114Z,2.58
2018-02-21T10:15:51.098Z,2.55
2018-02-21T10:16:51.085Z,2.63
2018-02-21T10:17:51.056Z,2.79
2018-02-21T10:18:51.031Z,2.87
2018-02-21T10:19:51.020Z,2.70
2018-02-21T10:20:50.994Z,2.84
2018-02-21T10:21:50.975Z,3.03
2018-02-21T10:22:50.963Z,3.23
2018-02-21T10:23:50.947Z,3.06
2018-02-21T10:24:50.921Z,3.03
2018-02-21T10:25:50.908Z,3.07
2018-02-21T10:26:50.886Z,3.24
2018-02-21T10:27:50.873Z,3.46
2018-02-21T10:28:50.848Z,3.36
2018-02-21T10:29:50.826Z,3.42
2018-02-21T10:30:50.811Z,3.46
2018-02-21T10:31:50.801Z,3.44
2018-02-21T10:32:50.789Z,3.43
2018-02-21T10:33:50.760Z,3.71
2018-02-21T10:34:50.750Z,3.54
2018-02-21T10:35:50.727Z,3.43
2018-02-21T10:36:50.712Z,3.33
2018-02-21T10:37:50.699Z,3.42
2018-02-21T10:38:50.687Z,3.36
2018-02-21T10:39:50.664Z,3.39
2018-02-21T10:40:50.650Z,3.60
2018-02-21T10:41:50.638Z,3.76
2018-02-21T10:42:50.619Z,4.00
2018-02-21T10:43:50.609Z,3.82
2018-02-21T10:44:50.591Z,3.61
2018-02-21T10:45:50.574Z,3.47
2018-02-21T10:46:50.568Z,3.47
2018-02-21T10:47:50.546Z,3.64
2018-02-21T10:48:50.530Z,3.88
2018-02-21T10:49:50.520Z,4.12
2018-02-21T10:50:50.504Z,3.97
2018-02-21T10:51:50.488Z,3.90
2018-02-21T10:52:50.469Z,3.83
2018-02-21T10:53:50.453Z,3.72
2018-02-21T10:54:50.446Z,3.71
2018-02-21T10:55:50.424Z,3.79
2018-02-21T10:56:50.415Z,3.96
2018-02-21T10:57:50.398Z,3.94
2018-02-21T10:58:50.380Z,3.94
2018-02-21T10:59:50.370Z,4.14
2018-02-21T11:00:50.352Z,4.03
2018-02-21T11:01:50.338Z,3.92
2018-02-21T11:02:50.331Z,3.97
2018-02-21T11:03:50.309Z,3.92
2018-02-21T11:04:50.308Z,3.96
2018-02-21T11:05:50.285Z,4.08
2018-02-21T11:06:50.270Z,4.16
2018-02-21T11:07:50.252Z,4.36
2018-02-21T11:08:50.291Z,4.55
2018-02-21T11:09:50.230Z,4.77
2018-02-21T11:10:50.211Z,4.44
2018-02-21T11:11:50.205Z,4.37
2018-02-21T11:12:50.185Z,4.44
2018-02-21T11:13:50.172Z,4.54
2018-02-21T11:14:50.162Z,4.47
2018-02-21T11:15:50.143Z,4.57
2018-02-21T11:16:50.130Z,4.89
2018-02-21T11:17:50.121Z,4.72
2018-02-21T11:18:50.101Z,4.59
2018-02-21T11:19:50.096Z,4.77
2018-02-21T11:20:50.089Z,4.88
2018-02-21T11:21:50.071Z,5.01
2018-02-21T11:22:50.057Z,5.12
2018-02-21T11:23:50.036Z,5.16
2018-02-21T11:24:50.029Z,5.27
2018-02-21T11:25:50.010Z,5.55
2018-02-21T11:26:49.997Z,5.35
2018-02-21T11:27:49.985Z,5.23
2018-02-21T11:28:49.987Z,5.71
2018-02-21T11:29:49.956Z,5.74
2018-02-21T11:30:49.952Z,5.95
2018-02-21T11:31:49.943Z,6.14
2018-02-21T11:32:49.930Z,6.36
2018-02-21T11:33:49.913Z,6.18
2018-02-21T11:34:49.902Z,5.98
2018-02-21T11:35:49.888Z,5.85
2018-02-21T11:36:49.883Z,6.07
2018-02-21T11:37:49.869Z,6.25
2018-02-21T11:38:49.856Z,5.82
2018-02-21T11:39:49.847Z,5.55
2018-02-21T11:40:49.832Z,5.35
2018-02-21T11:41:49.823Z,5.56
2018-02-21T11:42:49.813Z,5.53
2018-02-21T11:43:49.801Z,5.56
2018-02-21T11:44:49.791Z,5.63
2018-02-21T11:45:49.778Z,5.86
2018-02-21T11:46:49.771Z,6.03
2018-02-21T11:47:49.756Z,6.03
2018-02-21T11:48:49.753Z,6.14
2018-02-21T11:49:49.743Z,6.68
2018-02-21T11:50:49.734Z,6.83
2018-02-21T11:51:49.725Z,6.69
2018-02-21T11:52:49.711Z,6.63
2018-02-21T11:53:49.705Z,6.99
2018-02-21T11:54:49.695Z,7.08
2018-02-21T11:55:49.686Z,6.76
2018-02-21T11:56:49.673Z,6.62
2018-02-21T11:57:49.658Z,6.22
2018-02-21T11:58:49.653Z,5.95
2018-02-21T11:59:49.643Z,5.98
2018-02-21T12:00:49.638Z,5.89
2018-02-21T12:01:49.622Z,6.07
2018-02-21T12:02:49.616Z,6.41
2018-02-21T12:03:49.603Z,6.69
2018-02-21T12:04:49.658Z,6.68
2018-02-21T12:05:49.585Z,6.29
2018-02-21T12:06:49.593Z,6.16
2018-02-21T12:07:49.565Z,6.16
2018-02-21T12:08:49.565Z,6.07
2018-02-21T12:09:49.556Z,6.10
2018-02-21T12:10:49.542Z,6.07
2018-02-21T12:11:49.527Z,6.10
2018-02-21T12:12:49.517Z,6.47
2018-02-21T12:13:49.517Z,6.54
2018-02-21T12:14:49.500Z,6.46
2018-02-21T12:15:49.494Z,6.71
2018-02-21T12:16:49.482Z,7.07
2018-02-21T12:17:49.472Z,6.81
2018-02-21T12:18:49.466Z,6.71
2018-02-21T12:19:49.459Z,6.69
2018-02-21T12:20:49.439Z,6.50
2018-02-21T12:21:49.949Z,6.68
2018-02-21T12:22:49.430Z,6.87
2018-02-21T12:23:49.417Z,7.23
2018-02-21T12:24:49.411Z,7.71
2018-02-21T12:25:49.397Z,7.35
2018-02-21T12:26:49.385Z,7.29
2018-02-21T12:27:49.385Z,7.75
2018-02-21T12:28:49.383Z,7.40
2018-02-21T12:29:49.366Z,7.29
2018-02-21T12:30:49.356Z,7.66
2018-02-21T12:31:49.344Z,8.02
2018-02-21T12:32:49.331Z,7.75
2018-02-21T12:33:49.327Z,7.52
2018-02-21T12:34:49.318Z,7.23
2018-02-21T12:35:49.311Z,6.95
2018-02-21T12:36:49.298Z,6.80
2018-02-21T12:37:49.334Z,6.83
2018-02-21T12:38:49.283Z,6.94
2018-02-21T12:39:49.276Z,6.95
2018-02-21T12:40:49.267Z,6.76
2018-02-21T12:41:49.263Z,7.24
2018-02-21T12:42:49.244Z,7.55
2018-02-21T12:43:49.241Z,7.42
2018-02-21T12:44:49.236Z,7.50
2018-02-21T12:45:49.224Z,8.00
2018-02-21T12:46:49.221Z,7.92
2018-02-21T12:47:49.204Z,7.60
2018-02-21T12:48:49.195Z,7.37
2018-02-21T12:49:49.192Z,7.23
2018-02-21T12:50:49.192Z,7.24
2018-02-21T12:51:49.176Z,7.17
2018-02-21T12:52:49.163Z,6.94
2018-02-21T12:53:49.157Z,6.94
2018-02-21T12:54:49.150Z,6.80
2018-02-21T12:55:49.137Z,6.65
2018-02-21T12:56:49.134Z,6.73
2018-02-21T12:57:49.118Z,6.84
2018-02-21T12:58:49.111Z,6.72
2018-02-21T12:59:49.103Z,6.91
2018-02-21T13:00:49.093Z,6.84
2018-02-21T13:01:49.083Z,6.59
2018-02-21T13:02:49.079Z,6.81
2018-02-21T13:03:49.068Z,7.41
2018-02-21T13:04:49.058Z,7.97
2018-02-21T13:05:49.081Z,8.00
2018-02-21T13:06:49.038Z,8.29